createdAt,value
2023-03-19T00:00:19.790Z,4
2023-03-19T00:05:19.821Z,4
2023-03-19T00:10:16.982Z,4
2023-03-19T00:15:19.830Z,3
2023-03-19T00:20:19.858Z,4
2023-03-19T00:25:16.860Z,4
2023-03-19T00:30:16.870Z,3
2023-03-19T00:35:19.829Z,4
2023-03-19T00:40:19.866Z,4
2023-03-19T00:45:19.769Z,2
2023-03-19T00:50:19.804Z,3
2023-03-19T00:55:16.902Z,2
2023-03-19T01:00:16.912Z,3
2023-03-19T01:05:16.887Z,2
2023-03-19T01:10:19.876Z,2
2023-03-19T01:15:19.820Z,2
2023-03-19T01:20:16.941Z,3
2023-03-19T01:25:19.864Z,2
2023-03-19T01:30:16.907Z,2
2023-03-19T01:35:19.847Z,2
2023-03-19T01:40:19.871Z,2
2023-03-19T01:45:19.826Z,2
2023-03-19T01:50:19.823Z,2
2023-03-19T01:55:16.877Z,1
2023-03-19T02:00:19.911Z,2
2023-03-19T02:05:19.827Z,1
2023-03-19T02:10:19.852Z,1
2023-03-19T02:15:19.832Z,1
2023-03-19T02:20:19.835Z,1
2023-03-19T02:25:16.934Z,1
2023-03-19T02:30:19.932Z,2
2023-03-19T02:35:16.881Z,1
2023-03-19T02:40:19.865Z,1
2023-03-19T02:45:19.853Z,1
2023-03-19T02:50:16.911Z,1
2023-03-19T02:55:19.901Z,1
2023-03-19T03:00:16.921Z,1
2023-03-19T03:05:16.886Z,1
2023-03-19T03:10:19.960Z,1
2023-03-19T03:15:19.928Z,1
2023-03-19T03:20:19.948Z,0
2023-03-19T03:25:16.728Z,0
2023-03-19T03:30:23.131Z,0
2023-03-19T03:35:19.920Z,0
2023-03-19T03:40:16.932Z,0
2023-03-19T03:45:16.955Z,0
2023-03-19T03:50:19.990Z,1
2023-03-19T03:55:19.870Z,1
2023-03-19T04:00:16.198Z,1
2023-03-19T04:05:16.238Z,1
2023-03-19T04:10:19.205Z,1
2023-03-19T04:15:19.220Z,1
2023-03-19T04:20:16.223Z,1
2023-03-19T04:25:19.206Z,1
2023-03-19T04:30:16.124Z,1
2023-03-19T04:35:19.208Z,2
2023-03-19T04:40:16.275Z,1
2023-03-19T04:45:16.226Z,2
2023-03-19T04:50:19.228Z,1
2023-03-19T04:55:19.145Z,1
2023-03-19T05:00:16.227Z,1
2023-03-19T05:05:16.211Z,1
2023-03-19T05:10:19.186Z,2
2023-03-19T05:15:19.218Z,2
2023-03-19T05:20:16.288Z,2
2023-03-19T05:25:16.221Z,1
2023-03-19T05:30:16.284Z,1
2023-03-19T05:35:19.199Z,2
2023-03-19T05:40:19.208Z,2
2023-03-19T05:45:16.294Z,2
2023-03-19T05:50:19.261Z,2
2023-03-19T05:55:19.231Z,2
2023-03-19T06:00:19.217Z,3
2023-03-19T06:05:19.197Z,2
2023-03-19T06:10:19.256Z,3
2023-03-19T06:15:16.286Z,2
2023-03-19T06:20:16.269Z,2
2023-03-19T06:25:19.222Z,2
2023-03-19T06:30:19.222Z,2
2023-03-19T06:35:19.243Z,3
2023-03-19T06:40:19.294Z,2
2023-03-19T06:45:16.335Z,2
2023-03-19T06:50:16.283Z,2
2023-03-19T06:55:19.336Z,2
2023-03-19T07:00:19.297Z,2
2023-03-19T07:05:19.236Z,2
2023-03-19T07:10:16.132Z,2
2023-03-19T07:15:16.263Z,2
2023-03-19T07:20:16.309Z,2
2023-03-19T07:25:16.304Z,1
2023-03-19T07:30:19.301Z,2
2023-03-19T07:35:19.262Z,2
2023-03-19T07:40:19.295Z,2
2023-03-19T07:45:19.252Z,3
2023-03-19T07:50:16.325Z,2
2023-03-19T07:55:19.279Z,3
2023-03-19T08:00:16.460Z,3
2023-03-19T08:05:16.341Z,3
2023-03-19T08:10:16.386Z,4
2023-03-19T08:15:16.283Z,3
2023-03-19T08:20:19.453Z,4
2023-03-19T08:25:16.166Z,4
2023-03-19T08:30:16.382Z,4
2023-03-19T08:35:16.346Z,2
2023-03-19T08:40:16.371Z,3
2023-03-19T08:45:16.368Z,3
2023-03-19T08:50:19.332Z,4
2023-03-19T08:55:19.294Z,4
2023-03-19T09:00:19.298Z,4
2023-03-19T09:05:19.326Z,4
2023-03-19T09:10:19.314Z,4
2023-03-19T09:15:19.322Z,4
2023-03-19T09:20:19.288Z,4
2023-03-19T09:25:19.386Z,3
2023-03-19T09:30:19.289Z,3
2023-03-19T09:35:19.330Z,3
2023-03-19T09:40:19.312Z,4
2023-03-19T09:45:16.383Z,3
2023-03-19T09:50:16.431Z,3
2023-03-19T09:55:19.372Z,3
2023-03-19T10:00:19.391Z,4
2023-03-19T10:05:19.433Z,4
2023-03-19T10:10:16.402Z,3
2023-03-19T10:15:16.423Z,4
2023-03-19T10:20:16.435Z,4
2023-03-19T10:25:19.464Z,3
2023-03-19T10:30:19.444Z,4
2023-03-19T10:35:19.405Z,3
2023-03-19T10:40:19.509Z,3
2023-03-19T10:45:19.372Z,3
2023-03-19T10:50:19.501Z,3
2023-03-19T10:55:19.556Z,3
2023-03-19T11:00:16.429Z,4
2023-03-19T11:05:16.226Z,3
2023-03-19T11:10:16.440Z,3
2023-03-19T11:15:19.389Z,3
2023-03-19T11:20:19.424Z,5
2023-03-19T11:25:19.357Z,5
2023-03-19T11:30:19.371Z,5
2023-03-19T11:35:19.403Z,4
2023-03-19T11:40:16.539Z,5
2023-03-19T11:45:19.426Z,5
2023-03-19T11:50:19.428Z,4
2023-03-19T11:55:19.354Z,3
2023-03-19T12:00:19.453Z,5
2023-03-19T12:05:19.468Z,5
2023-03-19T12:10:16.500Z,4
2023-03-19T12:15:19.460Z,4
2023-03-19T12:20:16.488Z,4
2023-03-19T12:25:19.454Z,4
2023-03-19T12:30:16.487Z,3
2023-03-19T12:35:16.493Z,4
2023-03-19T12:40:19.482Z,4
2023-03-19T12:45:19.415Z,4
2023-03-19T12:50:19.399Z,5
2023-03-19T12:55:16.465Z,4
2023-03-19T13:00:16.452Z,4
2023-03-19T13:05:16.495Z,4
2023-03-19T13:10:19.456Z,5
2023-03-19T13:15:19.408Z,4
2023-03-19T13:20:19.500Z,4
2023-03-19T13:25:16.547Z,5
2023-03-19T13:30:16.458Z,5
2023-03-19T13:35:16.509Z,5
2023-03-19T13:40:19.472Z,5
2023-03-19T13:45:19.470Z,4
2023-03-19T13:50:19.486Z,6
2023-03-19T13:55:16.473Z,4
2023-03-19T14:00:19.461Z,6
2023-03-19T14:05:20.109Z,3
2023-03-19T14:10:19.469Z,5
2023-03-19T14:15:19.457Z,4
2023-03-19T14:20:36.592Z,7
2023-03-19T14:25:17.671Z,6
2023-03-19T14:30:16.529Z,7
2023-03-19T14:35:16.516Z,5
2023-03-19T14:40:16.534Z,5
2023-03-19T14:45:19.512Z,6
2023-03-19T14:50:16.539Z,5
2023-03-19T14:55:19.511Z,6
2023-03-19T15:00:19.503Z,5
2023-03-19T15:05:19.516Z,6
2023-03-19T15:10:16.508Z,4
2023-03-19T15:15:19.591Z,5
2023-03-19T15:20:19.502Z,6
2023-03-19T15:25:16.528Z,5
2023-03-19T15:30:18.800Z,5
2023-03-19T15:35:19.688Z,6
2023-03-19T15:40:19.783Z,6
2023-03-19T15:45:16.434Z,5
2023-03-19T15:50:19.557Z,5
2023-03-19T15:55:19.487Z,4
2023-03-19T16:00:19.545Z,5
2023-03-19T16:05:22.888Z,5
2023-03-19T16:10:19.505Z,5
2023-03-19T16:15:16.563Z,6
2023-03-19T16:20:19.624Z,7
2023-03-19T16:25:19.551Z,6
2023-03-19T16:30:19.511Z,5
2023-03-19T16:35:16.579Z,5
2023-03-19T16:40:16.610Z,6
2023-03-19T16:45:19.531Z,6
2023-03-19T16:50:19.593Z,8
2023-03-19T16:55:16.595Z,8
2023-03-19T17:00:16.609Z,5
2023-03-19T17:05:16.448Z,6
2023-03-19T17:10:16.601Z,7
2023-03-19T17:15:16.622Z,6
2023-03-19T17:20:19.622Z,9
2023-03-19T17:25:19.579Z,10
2023-03-19T17:30:16.577Z,7
2023-03-19T17:35:19.581Z,6
2023-03-19T17:40:16.506Z,5
2023-03-19T17:45:16.584Z,6
2023-03-19T17:50:19.656Z,7
2023-03-19T17:55:19.593Z,5
2023-03-19T18:00:19.620Z,5
2023-03-19T18:05:19.621Z,6
2023-03-19T18:10:19.609Z,5
2023-03-19T18:15:16.609Z,6
2023-03-19T18:20:16.607Z,6
2023-03-19T18:25:19.662Z,6
2023-03-19T18:30:16.612Z,7
2023-03-19T18:35:19.694Z,5
2023-03-19T18:40:19.632Z,6
2023-03-19T18:45:16.640Z,7
2023-03-19T18:50:16.631Z,5
2023-03-19T18:55:19.669Z,6
2023-03-19T19:00:16.630Z,7
2023-03-19T19:05:19.626Z,8
2023-03-19T19:10:19.933Z,6
2023-03-19T19:15:16.724Z,7
2023-03-19T19:20:16.682Z,7
2023-03-19T19:25:16.643Z,6
2023-03-19T19:30:16.673Z,4
2023-03-19T19:35:22.350Z,7
2023-03-19T19:40:19.707Z,6
2023-03-19T19:45:19.677Z,7
2023-03-19T19:50:19.608Z,4
2023-03-19T19:55:19.666Z,6
2023-03-19T20:00:19.641Z,7
2023-03-19T20:05:19.657Z,5
2023-03-19T20:10:19.674Z,5
2023-03-19T20:15:19.609Z,4
2023-03-19T20:20:16.555Z,6
2023-03-19T20:25:16.752Z,6
2023-03-19T20:30:19.716Z,6
2023-03-19T20:35:19.796Z,5
2023-03-19T20:40:19.642Z,6
2023-03-19T20:45:19.623Z,4
2023-03-19T20:50:16.734Z,8
2023-03-19T20:55:19.694Z,5
2023-03-19T21:00:19.700Z,6
2023-03-19T21:05:16.747Z,7
2023-03-19T21:10:19.712Z,7
2023-03-19T21:15:19.648Z,6
2023-03-19T21:20:19.673Z,7
2023-03-19T21:25:16.715Z,6
2023-03-19T21:30:16.742Z,8
2023-03-19T21:35:19.745Z,5
2023-03-19T21:40:19.710Z,5
2023-03-19T21:45:16.735Z,4
2023-03-19T21:50:19.741Z,4
2023-03-19T21:55:19.724Z,4
2023-03-19T22:00:19.709Z,4
2023-03-19T22:05:19.721Z,6
2023-03-19T22:10:19.716Z,5
2023-03-19T22:15:19.776Z,5
2023-03-19T22:20:19.699Z,5
2023-03-19T22:25:19.770Z,4
2023-03-19T22:30:19.688Z,5
2023-03-19T22:35:19.723Z,6
2023-03-19T22:40:19.764Z,6
2023-03-19T22:45:19.753Z,5
2023-03-19T22:50:19.742Z,6
2023-03-19T22:55:19.713Z,7
2023-03-19T23:00:16.690Z,6
2023-03-19T23:05:19.746Z,6
2023-03-19T23:10:19.773Z,7
2023-03-19T23:15:19.737Z,7
2023-03-19T23:20:19.797Z,5
2023-03-19T23:25:19.702Z,3
2023-03-19T23:30:19.759Z,4
2023-03-19T23:35:19.720Z,3
2023-03-19T23:40:19.743Z,4
2023-03-19T23:45:16.775Z,3
2023-03-19T23:50:16.792Z,5
2023-03-19T23:55:16.788Z,5
